sensor_id;sensor_type;location;lat;lon;timestamp;P1;durP1;ratioP1;P2;durP2;ratioP2
54735;SDS011;40632;51.442;11.936;2022-07-26T00:00:33;23.63;;;18.10;;
54735;SDS011;40632;51.442;11.936;2022-07-26T00:02:59;19.77;;;16.60;;
54735;SDS011;40632;51.442;11.936;2022-07-26T00:05:24;26.88;;;19.73;;
54735;SDS011;40632;51.442;11.936;2022-07-26T00:07:50;28.67;;;21.23;;
54735;SDS011;40632;51.442;11.936;2022-07-26T00:10:15;25.60;;;19.75;;
54735;SDS011;40632;51.442;11.936;2022-07-26T00:12:41;23.80;;;19.27;;
54735;SDS011;40632;51.442;11.936;2022-07-26T00:15:08;25.25;;;20.23;;
54735;SDS011;40632;51.442;11.936;2022-07-26T00:17:37;25.92;;;20.73;;
54735;SDS011;40632;51.442;11.936;2022-07-26T00:20:03;25.77;;;20.25;;
54735;SDS011;40632;51.442;11.936;2022-07-26T00:22:30;23.27;;;18.23;;
54735;SDS011;40632;51.442;11.936;2022-07-26T00:24:55;21.08;;;18.15;;
54735;SDS011;40632;51.442;11.936;2022-07-26T00:27:21;25.65;;;19.55;;
54735;SDS011;40632;51.442;11.936;2022-07-26T00:29:47;26.75;;;19.92;;
54735;SDS011;40632;51.442;11.936;2022-07-26T00:32:12;28.95;;;21.92;;
54735;SDS011;40632;51.442;11.936;2022-07-26T00:34:40;29.80;;;22.38;;
54735;SDS011;40632;51.442;11.936;2022-07-26T00:37:06;32.72;;;23.67;;
54735;SDS011;40632;51.442;11.936;2022-07-26T00:39:32;32.05;;;23.02;;
54735;SDS011;40632;51.442;11.936;2022-07-26T00:41:57;28.70;;;22.42;;
54735;SDS011;40632;51.442;11.936;2022-07-26T00:44:23;30.75;;;23.02;;
54735;SDS011;40632;51.442;11.936;2022-07-26T00:46:48;34.33;;;22.88;;
54735;SDS011;40632;51.442;11.936;2022-07-26T00:49:14;34.90;;;22.25;;
54735;SDS011;40632;51.442;11.936;2022-07-26T00:51:42;34.53;;;23.30;;
54735;SDS011;40632;51.442;11.936;2022-07-26T00:54:08;26.27;;;22.02;;
54735;SDS011;40632;51.442;11.936;2022-07-26T00:56:33;32.08;;;22.27;;
54735;SDS011;40632;51.442;11.936;2022-07-26T00:58:59;31.45;;;22.23;;
54735;SDS011;40632;51.442;11.936;2022-07-26T01:01:25;27.48;;;21.33;;
54735;SDS011;40632;51.442;11.936;2022-07-26T01:03:51;26.67;;;20.80;;
54735;SDS011;40632;51.442;11.936;2022-07-26T01:06:18;26.15;;;18.95;;
54735;SDS011;40632;51.442;11.936;2022-07-26T01:08:47;21.95;;;18.95;;
54735;SDS011;40632;51.442;11.936;2022-07-26T01:11:13;25.33;;;18.38;;
54735;SDS011;40632;51.442;11.936;2022-07-26T01:13:44;24.45;;;17.98;;
54735;SDS011;40632;51.442;11.936;2022-07-26T01:16:10;22.83;;;17.95;;
54735;SDS011;40632;51.442;11.936;2022-07-26T01:18:36;23.67;;;16.95;;
54735;SDS011;40632;51.442;11.936;2022-07-26T01:21:01;16.83;;;14.60;;
54735;SDS011;40632;51.442;11.936;2022-07-26T01:23:30;20.67;;;15.10;;
54735;SDS011;40632;51.442;11.936;2022-07-26T01:25:57;21.70;;;14.32;;
54735;SDS011;40632;51.442;11.936;2022-07-26T01:28:22;16.02;;;12.80;;
54735;SDS011;40632;51.442;11.936;2022-07-26T01:30:48;15.77;;;11.90;;
54735;SDS011;40632;51.442;11.936;2022-07-26T01:33:14;19.45;;;11.43;;
54735;SDS011;40632;51.442;11.936;2022-07-26T01:35:39;16.50;;;11.60;;
54735;SDS011;40632;51.442;11.936;2022-07-26T01:38:05;13.40;;;11.07;;
54735;SDS011;40632;51.442;11.936;2022-07-26T01:40:33;14.45;;;11.32;;
54735;SDS011;40632;51.442;11.936;2022-07-26T01:42:59;15.88;;;10.60;;
54735;SDS011;40632;51.442;11.936;2022-07-26T01:45:25;14.25;;;10.80;;
54735;SDS011;40632;51.442;11.936;2022-07-26T01:47:50;14.35;;;10.05;;
54735;SDS011;40632;51.442;11.936;2022-07-26T01:50:16;13.23;;;9.30;;
54735;SDS011;40632;51.442;11.936;2022-07-26T01:52:42;12.68;;;9.32;;
54735;SDS011;40632;51.442;11.936;2022-07-26T01:55:08;12.18;;;8.88;;
54735;SDS011;40632;51.442;11.936;2022-07-26T01:57:36;14.32;;;9.10;;
54735;SDS011;40632;51.442;11.936;2022-07-26T02:00:02;10.02;;;8.20;;
54735;SDS011;40632;51.442;11.936;2022-07-26T02:02:29;13.25;;;7.13;;
54735;SDS011;40632;51.442;11.936;2022-07-26T02:04:54;13.68;;;7.38;;
54735;SDS011;40632;51.442;11.936;2022-07-26T02:07:20;12.10;;;6.53;;
54735;SDS011;40632;51.442;11.936;2022-07-26T02:09:46;14.60;;;6.95;;
54735;SDS011;40632;51.442;11.936;2022-07-26T02:12:11;16.38;;;6.70;;
54735;SDS011;40632;51.442;11.936;2022-07-26T02:14:39;13.13;;;7.45;;
54735;SDS011;40632;51.442;11.936;2022-07-26T02:17:05;13.55;;;7.63;;
54735;SDS011;40632;51.442;11.936;2022-07-26T02:19:30;14.85;;;7.35;;
54735;SDS011;40632;51.442;11.936;2022-07-26T02:21:56;10.93;;;7.22;;
54735;SDS011;40632;51.442;11.936;2022-07-26T02:24:23;15.38;;;7.97;;
54735;SDS011;40632;51.442;11.936;2022-07-26T02:26:49;11.73;;;8.25;;
54735;SDS011;40632;51.442;11.936;2022-07-26T02:29:15;16.02;;;9.05;;
54735;SDS011;40632;51.442;11.936;2022-07-26T02:31:43;12.35;;;8.50;;
54735;SDS011;40632;51.442;11.936;2022-07-26T02:34:09;10.60;;;7.28;;
54735;SDS011;40632;51.442;11.936;2022-07-26T02:36:34;17.13;;;6.85;;
54735;SDS011;40632;51.442;11.936;2022-07-26T02:39:00;13.40;;;7.78;;
54735;SDS011;40632;51.442;11.936;2022-07-26T02:41:25;13.50;;;7.38;;
54735;SDS011;40632;51.442;11.936;2022-07-26T02:43:51;11.57;;;6.97;;
54735;SDS011;40632;51.442;11.936;2022-07-26T02:46:17;10.32;;;7.57;;
54735;SDS011;40632;51.442;11.936;2022-07-26T02:48:45;14.52;;;7.82;;
54735;SDS011;40632;51.442;11.936;2022-07-26T02:51:10;16.05;;;7.20;;
54735;SDS011;40632;51.442;11.936;2022-07-26T02:53:36;11.80;;;7.68;;
54735;SDS011;40632;51.442;11.936;2022-07-26T02:56:02;12.70;;;7.03;;
54735;SDS011;40632;51.442;11.936;2022-07-26T02:58:27;13.73;;;7.10;;
54735;SDS011;40632;51.442;11.936;2022-07-26T03:00:53;9.93;;;6.55;;
54735;SDS011;40632;51.442;11.936;2022-07-26T03:03:19;13.63;;;6.85;;
54735;SDS011;40632;51.442;11.936;2022-07-26T03:05:47;10.20;;;6.50;;
54735;SDS011;40632;51.442;11.936;2022-07-26T03:08:13;10.30;;;6.45;;
54735;SDS011;40632;51.442;11.936;2022-07-26T03:10:38;12.93;;;6.28;;
54735;SDS011;40632;51.442;11.936;2022-07-26T03:13:04;10.25;;;5.45;;
54735;SDS011;40632;51.442;11.936;2022-07-26T03:15:30;9.05;;;5.18;;
54735;SDS011;40632;51.442;11.936;2022-07-26T03:17:55;9.95;;;4.93;;
54735;SDS011;40632;51.442;11.936;2022-07-26T03:20:21;9.82;;;5.30;;
54735;SDS011;40632;51.442;11.936;2022-07-26T03:22:49;7.95;;;4.90;;
54735;SDS011;40632;51.442;11.936;2022-07-26T03:25:15;10.35;;;4.70;;
54735;SDS011;40632;51.442;11.936;2022-07-26T03:27:41;12.43;;;5.22;;
54735;SDS011;40632;51.442;11.936;2022-07-26T03:30:07;13.88;;;5.35;;
54735;SDS011;40632;51.442;11.936;2022-07-26T03:32:34;11.55;;;5.47;;
54735;SDS011;40632;51.442;11.936;2022-07-26T03:34:59;7.95;;;5.07;;
54735;SDS011;40632;51.442;11.936;2022-07-26T03:37:25;8.45;;;5.43;;
54735;SDS011;40632;51.442;11.936;2022-07-26T03:39:53;13.73;;;5.25;;
54735;SDS011;40632;51.442;11.936;2022-07-26T03:42:19;15.25;;;5.35;;
54735;SDS011;40632;51.442;11.936;2022-07-26T03:44:44;12.40;;;5.25;;
54735;SDS011;40632;51.442;11.936;2022-07-26T03:47:10;11.73;;;5.82;;
54735;SDS011;40632;51.442;11.936;2022-07-26T03:49:35;14.95;;;5.53;;
54735;SDS011;40632;51.442;11.936;2022-07-26T03:52:01;11.05;;;5.60;;
54735;SDS011;40632;51.442;11.936;2022-07-26T03:54:27;12.43;;;5.95;;
54735;SDS011;40632;51.442;11.936;2022-07-26T03:56:55;13.57;;;5.28;;
54735;SDS011;40632;51.442;11.936;2022-07-26T03:59:21;9.85;;;4.97;;
54735;SDS011;40632;51.442;11.936;2022-07-26T04:01:46;7.13;;;5.03;;
54735;SDS011;40632;51.442;11.936;2022-07-26T04:04:13;12.75;;;5.45;;
54735;SDS011;40632;51.442;11.936;2022-07-26T04:06:40;8.27;;;4.88;;
54735;SDS011;40632;51.442;11.936;2022-07-26T04:09:06;7.00;;;5.00;;
54735;SDS011;40632;51.442;11.936;2022-07-26T04:11:32;11.40;;;4.63;;
54735;SDS011;40632;51.442;11.936;2022-07-26T04:14:01;10.60;;;4.57;;
54735;SDS011;40632;51.442;11.936;2022-07-26T04:16:27;11.65;;;4.65;;
54735;SDS011;40632;51.442;11.936;2022-07-26T04:18:52;7.50;;;4.22;;
54735;SDS011;40632;51.442;11.936;2022-07-26T04:21:18;9.35;;;4.55;;
54735;SDS011;40632;51.442;11.936;2022-07-26T04:23:44;18.63;;;4.82;;
54735;SDS011;40632;51.442;11.936;2022-07-26T04:26:10;13.77;;;4.72;;
54735;SDS011;40632;51.442;11.936;2022-07-26T04:28:35;9.43;;;4.60;;
54735;SDS011;40632;51.442;11.936;2022-07-26T04:31:03;11.55;;;4.57;;
54735;SDS011;40632;51.442;11.936;2022-07-26T04:33:29;9.45;;;3.90;;
54735;SDS011;40632;51.442;11.936;2022-07-26T04:35:55;11.77;;;4.45;;
54735;SDS011;40632;51.442;11.936;2022-07-26T04:38:20;11.52;;;4.20;;
54735;SDS011;40632;51.442;11.936;2022-07-26T04:40:48;9.57;;;3.95;;
54735;SDS011;40632;51.442;11.936;2022-07-26T04:43:14;7.88;;;3.35;;
54735;SDS011;40632;51.442;11.936;2022-07-26T04:45:39;9.73;;;3.38;;
54735;SDS011;40632;51.442;11.936;2022-07-26T04:48:08;11.00;;;3.47;;
54735;SDS011;40632;51.442;11.936;2022-07-26T04:50:33;8.32;;;3.42;;
54735;SDS011;40632;51.442;11.936;2022-07-26T04:52:59;9.23;;;3.10;;
54735;SDS011;40632;51.442;11.936;2022-07-26T04:55:25;7.15;;;2.70;;
54735;SDS011;40632;51.442;11.936;2022-07-26T04:57:50;7.57;;;3.13;;
54735;SDS011;40632;51.442;11.936;2022-07-26T05:00:17;8.57;;;2.90;;
54735;SDS011;40632;51.442;11.936;2022-07-26T05:02:44;9.90;;;3.13;;
54735;SDS011;40632;51.442;11.936;2022-07-26T05:05:12;9.35;;;3.20;;
54735;SDS011;40632;51.442;11.936;2022-07-26T05:07:38;6.10;;;3.08;;
54735;SDS011;40632;51.442;11.936;2022-07-26T05:10:05;10.57;;;3.85;;
54735;SDS011;40632;51.442;11.936;2022-07-26T05:12:31;9.30;;;3.45;;
54735;SDS011;40632;51.442;11.936;2022-07-26T05:14:57;10.13;;;3.83;;
54735;SDS011;40632;51.442;11.936;2022-07-26T05:17:22;6.97;;;3.20;;
54735;SDS011;40632;51.442;11.936;2022-07-26T05:19:48;10.25;;;3.70;;
54735;SDS011;40632;51.442;11.936;2022-07-26T05:22:16;8.00;;;3.38;;
54735;SDS011;40632;51.442;11.936;2022-07-26T05:24:42;7.60;;;3.70;;
54735;SDS011;40632;51.442;11.936;2022-07-26T05:27:07;7.40;;;3.40;;
54735;SDS011;40632;51.442;11.936;2022-07-26T05:29:33;6.65;;;3.05;;
54735;SDS011;40632;51.442;11.936;2022-07-26T05:31:58;10.98;;;3.15;;
54735;SDS011;40632;51.442;11.936;2022-07-26T05:34:24;15.05;;;3.67;;
54735;SDS011;40632;51.442;11.936;2022-07-26T05:36:49;14.10;;;3.97;;
54735;SDS011;40632;51.442;11.936;2022-07-26T05:39:18;9.05;;;3.53;;
54735;SDS011;40632;51.442;11.936;2022-07-26T05:41:43;13.38;;;3.78;;
54735;SDS011;40632;51.442;11.936;2022-07-26T05:44:09;9.35;;;3.60;;
54735;SDS011;40632;51.442;11.936;2022-07-26T05:46:34;11.48;;;3.25;;
54735;SDS011;40632;51.442;11.936;2022-07-26T05:49:00;7.93;;;3.22;;
54735;SDS011;40632;51.442;11.936;2022-07-26T05:51:26;8.45;;;3.25;;
54735;SDS011;40632;51.442;11.936;2022-07-26T05:53:51;12.77;;;4.07;;
54735;SDS011;40632;51.442;11.936;2022-07-26T05:56:19;7.55;;;3.35;;
54735;SDS011;40632;51.442;11.936;2022-07-26T05:58:45;7.18;;;3.15;;
54735;SDS011;40632;51.442;11.936;2022-07-26T06:01:11;10.88;;;3.30;;
54735;SDS011;40632;51.442;11.936;2022-07-26T06:03:36;12.75;;;2.78;;
54735;SDS011;40632;51.442;11.936;2022-07-26T06:06:02;8.20;;;2.55;;
54735;SDS011;40632;51.442;11.936;2022-07-26T06:08:28;8.05;;;2.55;;
54735;SDS011;40632;51.442;11.936;2022-07-26T06:10:54;9.43;;;2.33;;
54735;SDS011;40632;51.442;11.936;2022-07-26T06:13:22;8.10;;;2.30;;
54735;SDS011;40632;51.442;11.936;2022-07-26T06:15:50;6.75;;;2.60;;
54735;SDS011;40632;51.442;11.936;2022-07-26T06:18:15;8.45;;;2.28;;
54735;SDS011;40632;51.442;11.936;2022-07-26T06:20:42;4.82;;;2.13;;
54735;SDS011;40632;51.442;11.936;2022-07-26T06:23:08;6.85;;;2.42;;
54735;SDS011;40632;51.442;11.936;2022-07-26T06:25:34;8.40;;;2.13;;
54735;SDS011;40632;51.442;11.936;2022-07-26T06:28:00;8.73;;;2.00;;
54735;SDS011;40632;51.442;11.936;2022-07-26T06:30:28;6.63;;;1.88;;
54735;SDS011;40632;51.442;11.936;2022-07-26T06:32:54;8.10;;;2.28;;
54735;SDS011;40632;51.442;11.936;2022-07-26T06:35:20;9.15;;;2.00;;
54735;SDS011;40632;51.442;11.936;2022-07-26T06:37:46;5.78;;;1.80;;
54735;SDS011;40632;51.442;11.936;2022-07-26T06:40:11;8.75;;;1.98;;
54735;SDS011;40632;51.442;11.936;2022-07-26T06:42:37;6.93;;;2.15;;
54735;SDS011;40632;51.442;11.936;2022-07-26T06:45:03;9.70;;;2.28;;
54735;SDS011;40632;51.442;11.936;2022-07-26T06:47:33;6.60;;;1.80;;
54735;SDS011;40632;51.442;11.936;2022-07-26T06:49:58;8.02;;;1.90;;
54735;SDS011;40632;51.442;11.936;2022-07-26T06:52:24;10.90;;;1.58;;
54735;SDS011;40632;51.442;11.936;2022-07-26T06:54:50;5.47;;;1.88;;
54735;SDS011;40632;51.442;11.936;2022-07-26T06:57:15;11.95;;;1.70;;
54735;SDS011;40632;51.442;11.936;2022-07-26T06:59:41;6.47;;;1.90;;
54735;SDS011;40632;51.442;11.936;2022-07-26T07:02:06;6.40;;;1.65;;
54735;SDS011;40632;51.442;11.936;2022-07-26T07:04:35;5.22;;;1.83;;
54735;SDS011;40632;51.442;11.936;2022-07-26T07:07:00;5.32;;;1.55;;
54735;SDS011;40632;51.442;11.936;2022-07-26T07:09:26;6.03;;;1.52;;
54735;SDS011;40632;51.442;11.936;2022-07-26T07:11:52;4.70;;;1.42;;
54735;SDS011;40632;51.442;11.936;2022-07-26T07:14:17;6.38;;;1.50;;
54735;SDS011;40632;51.442;11.936;2022-07-26T07:16:43;2.60;;;1.23;;
54735;SDS011;40632;51.442;11.936;2022-07-26T07:19:09;6.60;;;1.63;;
54735;SDS011;40632;51.442;11.936;2022-07-26T07:21:37;4.38;;;1.10;;
54735;SDS011;40632;51.442;11.936;2022-07-26T07:24:03;9.70;;;1.58;;
54735;SDS011;40632;51.442;11.936;2022-07-26T07:26:29;3.75;;;1.20;;
54735;SDS011;40632;51.442;11.936;2022-07-26T07:28:55;4.25;;;1.63;;
54735;SDS011;40632;51.442;11.936;2022-07-26T07:31:21;5.55;;;1.38;;
54735;SDS011;40632;51.442;11.936;2022-07-26T07:33:46;7.88;;;1.70;;
54735;SDS011;40632;51.442;11.936;2022-07-26T07:36:12;5.28;;;1.83;;
54735;SDS011;40632;51.442;11.936;2022-07-26T07:38:40;8.68;;;1.80;;
54735;SDS011;40632;51.442;11.936;2022-07-26T07:41:06;6.93;;;1.80;;
54735;SDS011;40632;51.442;11.936;2022-07-26T07:43:31;8.70;;;2.13;;
54735;SDS011;40632;51.442;11.936;2022-07-26T07:45:57;8.35;;;2.20;;
54735;SDS011;40632;51.442;11.936;2022-07-26T07:48:22;5.10;;;2.00;;
54735;SDS011;40632;51.442;11.936;2022-07-26T07:50:48;7.18;;;2.47;;
54735;SDS011;40632;51.442;11.936;2022-07-26T07:53:13;7.50;;;1.63;;
54735;SDS011;40632;51.442;11.936;2022-07-26T07:55:42;8.18;;;2.13;;
54735;SDS011;40632;51.442;11.936;2022-07-26T07:58:07;6.38;;;2.20;;
54735;SDS011;40632;51.442;11.936;2022-07-26T08:00:33;3.97;;;1.58;;
54735;SDS011;40632;51.442;11.936;2022-07-26T08:02:59;3.97;;;1.52;;
54735;SDS011;40632;51.442;11.936;2022-07-26T08:05:24;3.47;;;1.60;;
54735;SDS011;40632;51.442;11.936;2022-07-26T08:07:50;5.43;;;2.00;;
54735;SDS011;40632;51.442;11.936;2022-07-26T08:10:16;8.65;;;2.08;;
54735;SDS011;40632;51.442;11.936;2022-07-26T08:12:44;5.60;;;1.70;;
54735;SDS011;40632;51.442;11.936;2022-07-26T08:15:10;5.30;;;1.95;;
54735;SDS011;40632;51.442;11.936;2022-07-26T08:17:36;4.28;;;1.35;;
54735;SDS011;40632;51.442;11.936;2022-07-26T08:20:01;4.57;;;2.13;;
54735;SDS011;40632;51.442;11.936;2022-07-26T08:22:27;8.35;;;1.75;;
54735;SDS011;40632;51.442;11.936;2022-07-26T08:24:53;3.35;;;1.25;;
54735;SDS011;40632;51.442;11.936;2022-07-26T08:27:19;9.82;;;1.63;;
54735;SDS011;40632;51.442;11.936;2022-07-26T08:29:47;5.53;;;1.30;;
54735;SDS011;40632;51.442;11.936;2022-07-26T08:32:13;5.80;;;1.25;;
54735;SDS011;40632;51.442;11.936;2022-07-26T08:34:39;3.67;;;1.40;;
54735;SDS011;40632;51.442;11.936;2022-07-26T08:37:04;5.13;;;1.50;;
54735;SDS011;40632;51.442;11.936;2022-07-26T08:39:30;3.30;;;1.52;;
54735;SDS011;40632;51.442;11.936;2022-07-26T08:41:56;4.47;;;1.45;;
54735;SDS011;40632;51.442;11.936;2022-07-26T08:44:21;3.47;;;1.42;;
54735;SDS011;40632;51.442;11.936;2022-07-26T08:46:49;10.77;;;1.65;;
54735;SDS011;40632;51.442;11.936;2022-07-26T08:49:15;3.78;;;1.40;;
54735;SDS011;40632;51.442;11.936;2022-07-26T08:51:41;3.95;;;1.50;;
54735;SDS011;40632;51.442;11.936;2022-07-26T08:54:07;3.35;;;1.50;;
54735;SDS011;40632;51.442;11.936;2022-07-26T08:56:36;7.78;;;1.73;;
54735;SDS011;40632;51.442;11.936;2022-07-26T08:59:10;2.95;;;1.40;;
54735;SDS011;40632;51.442;11.936;2022-07-26T09:01:51;3.78;;;1.30;;
54735;SDS011;40632;51.442;11.936;2022-07-26T09:04:17;4.97;;;1.40;;
54735;SDS011;40632;51.442;11.936;2022-07-26T09:06:52;4.28;;;1.10;;
54735;SDS011;40632;51.442;11.936;2022-07-26T09:09:19;5.57;;;1.30;;
54735;SDS011;40632;51.442;11.936;2022-07-26T09:11:44;3.90;;;1.23;;
54735;SDS011;40632;51.442;11.936;2022-07-26T09:14:10;6.68;;;1.65;;
54735;SDS011;40632;51.442;11.936;2022-07-26T09:16:36;3.50;;;1.20;;
54735;SDS011;40632;51.442;11.936;2022-07-26T09:19:17;4.18;;;2.10;;
54735;SDS011;40632;51.442;11.936;2022-07-26T09:21:43;3.00;;;1.38;;
54735;SDS011;40632;51.442;11.936;2022-07-26T09:24:09;3.38;;;1.20;;
54735;SDS011;40632;51.442;11.936;2022-07-26T09:26:35;1.67;;;1.08;;
54735;SDS011;40632;51.442;11.936;2022-07-26T09:29:02;2.90;;;1.20;;
54735;SDS011;40632;51.442;11.936;2022-07-26T09:31:32;3.45;;;1.08;;
54735;SDS011;40632;51.442;11.936;2022-07-26T09:33:58;4.20;;;1.30;;
54735;SDS011;40632;51.442;11.936;2022-07-26T09:36:26;3.17;;;1.20;;
54735;SDS011;40632;51.442;11.936;2022-07-26T09:38:52;3.03;;;1.40;;
54735;SDS011;40632;51.442;11.936;2022-07-26T09:41:19;8.02;;;1.27;;
54735;SDS011;40632;51.442;11.936;2022-07-26T09:43:45;6.72;;;1.67;;
54735;SDS011;40632;51.442;11.936;2022-07-26T09:46:12;3.95;;;1.10;;
54735;SDS011;40632;51.442;11.936;2022-07-26T09:48:38;5.40;;;1.42;;
54735;SDS011;40632;51.442;11.936;2022-07-26T09:51:04;4.10;;;1.20;;
54735;SDS011;40632;51.442;11.936;2022-07-26T09:53:36;2.90;;;1.20;;
54735;SDS011;40632;51.442;11.936;2022-07-26T09:56:03;3.50;;;1.20;;
54735;SDS011;40632;51.442;11.936;2022-07-26T09:58:30;5.55;;;1.00;;
54735;SDS011;40632;51.442;11.936;2022-07-26T10:00:57;4.78;;;1.20;;
54735;SDS011;40632;51.442;11.936;2022-07-26T10:03:23;4.55;;;1.20;;
54735;SDS011;40632;51.442;11.936;2022-07-26T10:05:49;3.08;;;1.10;;
54735;SDS011;40632;51.442;11.936;2022-07-26T10:08:15;2.25;;;1.10;;
54735;SDS011;40632;51.442;11.936;2022-07-26T10:10:45;3.50;;;1.20;;
54735;SDS011;40632;51.442;11.936;2022-07-26T10:13:14;3.58;;;1.40;;
54735;SDS011;40632;51.442;11.936;2022-07-26T10:15:42;2.88;;;1.13;;
54735;SDS011;40632;51.442;11.936;2022-07-26T10:18:08;2.70;;;1.20;;
54735;SDS011;40632;51.442;11.936;2022-07-26T10:20:43;5.43;;;1.40;;
54735;SDS011;40632;51.442;11.936;2022-07-26T10:26:07;5.75;;;1.55;;
54735;SDS011;40632;51.442;11.936;2022-07-26T10:28:35;5.28;;;1.50;;
54735;SDS011;40632;51.442;11.936;2022-07-26T10:33:51;4.57;;;1.70;;
54735;SDS011;40632;51.442;11.936;2022-07-26T10:36:21;5.47;;;1.30;;
54735;SDS011;40632;51.442;11.936;2022-07-26T10:38:58;2.80;;;1.30;;
54735;SDS011;40632;51.442;11.936;2022-07-26T10:41:32;4.05;;;1.35;;
54735;SDS011;40632;51.442;11.936;2022-07-26T10:46:58;2.80;;;1.30;;
54735;SDS011;40632;51.442;11.936;2022-07-26T10:49:27;2.33;;;1.20;;
54735;SDS011;40632;51.442;11.936;2022-07-26T10:52:03;2.30;;;1.40;;
54735;SDS011;40632;51.442;11.936;2022-07-26T10:57:41;3.45;;;1.42;;
54735;SDS011;40632;51.442;11.936;2022-07-26T11:00:12;3.78;;;1.25;;
54735;SDS011;40632;51.442;11.936;2022-07-26T11:02:39;1.92;;;1.33;;
54735;SDS011;40632;51.442;11.936;2022-07-26T11:05:06;3.22;;;1.20;;
54735;SDS011;40632;51.442;11.936;2022-07-26T11:07:41;1.98;;;1.10;;
54735;SDS011;40632;51.442;11.936;2022-07-26T11:10:18;2.83;;;1.20;;
54735;SDS011;40632;51.442;11.936;2022-07-26T11:12:49;2.28;;;1.20;;
54735;SDS011;40632;51.442;11.936;2022-07-26T11:15:22;3.40;;;1.88;;
54735;SDS011;40632;51.442;11.936;2022-07-26T11:17:48;2.47;;;1.45;;
54735;SDS011;40632;51.442;11.936;2022-07-26T11:20:22;4.45;;;1.80;;
54735;SDS011;40632;51.442;11.936;2022-07-26T11:22:49;3.30;;;1.40;;
54735;SDS011;40632;51.442;11.936;2022-07-26T11:25:19;3.33;;;1.48;;
54735;SDS011;40632;51.442;11.936;2022-07-26T11:27:59;2.67;;;1.67;;
54735;SDS011;40632;51.442;11.936;2022-07-26T11:30:26;3.67;;;1.70;;
54735;SDS011;40632;51.442;11.936;2022-07-26T11:32:52;4.70;;;1.80;;
54735;SDS011;40632;51.442;11.936;2022-07-26T11:35:18;4.45;;;1.70;;
54735;SDS011;40632;51.442;11.936;2022-07-26T11:37:50;2.35;;;1.50;;
54735;SDS011;40632;51.442;11.936;2022-07-26T11:40:18;4.15;;;2.20;;
54735;SDS011;40632;51.442;11.936;2022-07-26T11:43:07;3.17;;;1.60;;
54735;SDS011;40632;51.442;11.936;2022-07-26T11:45:33;5.20;;;1.50;;
54735;SDS011;40632;51.442;11.936;2022-07-26T11:48:00;2.25;;;1.52;;
54735;SDS011;40632;51.442;11.936;2022-07-26T11:50:27;3.00;;;1.60;;
54735;SDS011;40632;51.442;11.936;2022-07-26T11:52:53;4.00;;;1.38;;
54735;SDS011;40632;51.442;11.936;2022-07-26T11:55:24;5.80;;;1.45;;
54735;SDS011;40632;51.442;11.936;2022-07-26T11:57:51;7.97;;;1.50;;
54735;SDS011;40632;51.442;11.936;2022-07-26T12:00:20;3.60;;;1.40;;
54735;SDS011;40632;51.442;11.936;2022-07-26T12:02:46;4.63;;;1.70;;
54735;SDS011;40632;51.442;11.936;2022-07-26T12:05:12;4.38;;;1.75;;
54735;SDS011;40632;51.442;11.936;2022-07-26T12:07:50;7.95;;;1.70;;
54735;SDS011;40632;51.442;11.936;2022-07-26T12:10:17;3.20;;;1.23;;
54735;SDS011;40632;51.442;11.936;2022-07-26T12:12:43;4.10;;;1.70;;
54735;SDS011;40632;51.442;11.936;2022-07-26T12:15:09;2.72;;;1.35;;
54735;SDS011;40632;51.442;11.936;2022-07-26T12:17:37;3.88;;;1.30;;
54735;SDS011;40632;51.442;11.936;2022-07-26T12:20:09;9.10;;;1.70;;
54735;SDS011;40632;51.442;11.936;2022-07-26T12:22:35;3.17;;;1.58;;
54735;SDS011;40632;51.442;11.936;2022-07-26T12:25:01;4.75;;;1.60;;
54735;SDS011;40632;51.442;11.936;2022-07-26T12:27:27;4.93;;;1.85;;
54735;SDS011;40632;51.442;11.936;2022-07-26T12:29:54;4.93;;;1.63;;
54735;SDS011;40632;51.442;11.936;2022-07-26T12:32:40;7.32;;;1.42;;
54735;SDS011;40632;51.442;11.936;2022-07-26T12:35:08;5.15;;;1.30;;
54735;SDS011;40632;51.442;11.936;2022-07-26T12:37:35;2.50;;;1.20;;
54735;SDS011;40632;51.442;11.936;2022-07-26T12:40:04;5.18;;;1.42;;
54735;SDS011;40632;51.442;11.936;2022-07-26T12:42:33;2.95;;;1.10;;
54735;SDS011;40632;51.442;11.936;2022-07-26T12:45:00;3.72;;;1.45;;
54735;SDS011;40632;51.442;11.936;2022-07-26T12:47:27;2.53;;;1.55;;
54735;SDS011;40632;51.442;11.936;2022-07-26T12:49:55;2.28;;;2.00;;
54735;SDS011;40632;51.442;11.936;2022-07-26T12:52:21;2.72;;;1.60;;
54735;SDS011;40632;51.442;11.936;2022-07-26T12:54:48;3.83;;;2.03;;
54735;SDS011;40632;51.442;11.936;2022-07-26T12:57:15;5.75;;;1.80;;
54735;SDS011;40632;51.442;11.936;2022-07-26T12:59:41;4.85;;;1.75;;
54735;SDS011;40632;51.442;11.936;2022-07-26T13:02:07;5.30;;;1.98;;
54735;SDS011;40632;51.442;11.936;2022-07-26T13:04:33;3.70;;;1.70;;
54735;SDS011;40632;51.442;11.936;2022-07-26T13:07:02;7.20;;;2.13;;
54735;SDS011;40632;51.442;11.936;2022-07-26T13:09:27;5.35;;;1.65;;
54735;SDS011;40632;51.442;11.936;2022-07-26T13:11:53;4.43;;;1.63;;
54735;SDS011;40632;51.442;11.936;2022-07-26T13:14:19;8.45;;;1.70;;
54735;SDS011;40632;51.442;11.936;2022-07-26T13:16:45;4.65;;;1.88;;
54735;SDS011;40632;51.442;11.936;2022-07-26T13:19:11;3.50;;;1.63;;
54735;SDS011;40632;51.442;11.936;2022-07-26T13:21:36;6.78;;;1.90;;
54735;SDS011;40632;51.442;11.936;2022-07-26T13:24:05;5.45;;;1.70;;
54735;SDS011;40632;51.442;11.936;2022-07-26T13:26:31;4.63;;;1.52;;
54735;SDS011;40632;51.442;11.936;2022-07-26T13:28:56;4.50;;;1.73;;
54735;SDS011;40632;51.442;11.936;2022-07-26T13:31:22;3.30;;;1.33;;
54735;SDS011;40632;51.442;11.936;2022-07-26T13:33:48;2.25;;;1.52;;
54735;SDS011;40632;51.442;11.936;2022-07-26T13:36:13;3.47;;;1.40;;
54735;SDS011;40632;51.442;11.936;2022-07-26T13:38:39;4.68;;;1.30;;
54735;SDS011;40632;51.442;11.936;2022-07-26T13:41:07;3.53;;;1.40;;
54735;SDS011;40632;51.442;11.936;2022-07-26T13:43:33;3.70;;;1.38;;
54735;SDS011;40632;51.442;11.936;2022-07-26T13:45:59;4.03;;;1.30;;
54735;SDS011;40632;51.442;11.936;2022-07-26T13:48:25;4.85;;;1.30;;
54735;SDS011;40632;51.442;11.936;2022-07-26T13:50:51;2.67;;;1.40;;
54735;SDS011;40632;51.442;11.936;2022-07-26T13:53:17;4.40;;;1.80;;
54735;SDS011;40632;51.442;11.936;2022-07-26T13:55:43;3.30;;;1.50;;
54735;SDS011;40632;51.442;11.936;2022-07-26T13:58:11;7.00;;;1.55;;
54735;SDS011;40632;51.442;11.936;2022-07-26T14:00:36;2.80;;;1.42;;
54735;SDS011;40632;51.442;11.936;2022-07-26T14:03:04;4.03;;;1.52;;
54735;SDS011;40632;51.442;11.936;2022-07-26T14:05:29;6.22;;;1.23;;
54735;SDS011;40632;51.442;11.936;2022-07-26T14:07:55;4.03;;;1.00;;
54735;SDS011;40632;51.442;11.936;2022-07-26T14:10:21;3.90;;;1.13;;
54735;SDS011;40632;51.442;11.936;2022-07-26T14:12:47;2.38;;;1.38;;
54735;SDS011;40632;51.442;11.936;2022-07-26T14:15:16;4.90;;;1.45;;
54735;SDS011;40632;51.442;11.936;2022-07-26T14:17:42;5.45;;;1.27;;
54735;SDS011;40632;51.442;11.936;2022-07-26T14:20:08;4.15;;;1.33;;
54735;SDS011;40632;51.442;11.936;2022-07-26T14:22:34;3.47;;;1.40;;
54735;SDS011;40632;51.442;11.936;2022-07-26T14:25:00;2.80;;;1.13;;
54735;SDS011;40632;51.442;11.936;2022-07-26T14:27:25;2.65;;;1.00;;
54735;SDS011;40632;51.442;11.936;2022-07-26T14:29:51;4.50;;;1.30;;
54735;SDS011;40632;51.442;11.936;2022-07-26T14:32:19;2.67;;;1.10;;
54735;SDS011;40632;51.442;11.936;2022-07-26T14:34:45;8.20;;;1.30;;
54735;SDS011;40632;51.442;11.936;2022-07-26T14:37:10;5.45;;;1.25;;